Time;durP1;ratioP1;P1;durP2;ratioP2;P2;SDS_P1;SDS_P2;PMS_P1;PMS_P2;Temp;Humidity;BMP_temperature;BMP_pressure;BME280_temperature;BME280_humidity;BME280_pressure;Samples;Min_cycle;Max_cycle;Signal;HPM_P1;HPM_P2
2022/02/15 00:02:18;;;;;;;;;7.25;4.00;;;;;-147.17;100.00;50513.31;4985764;28;51130;-60
2022/02/15 00:04:44;;;;;;;;;2.75;2.75;;;;;-147.17;100.00;50493.63;4992289;28;51189;-62
2022/02/15 00:07:09;;;;;;;;;6.50;6.00;;;;;-147.17;100.00;50462.13;4985033;28;51409;-60
2022/02/15 00:09:35;;;;;;;;;3.00;3.00;;;;;-147.17;100.00;50471.97;4986675;28;51705;-60
2022/02/15 00:12:01;;;;;;;;;3.50;3.00;;;;;-147.17;100.00;50434.56;4979894;28;51124;-60
2022/02/15 00:14:26;;;;;;;;;5.75;3.00;;;;;-147.17;100.00;50485.75;4980880;28;51118;-61
2022/02/15 00:16:51;;;;;;;;;3.00;3.00;;;;;-147.17;100.00;50485.75;4985197;28;51455;-61
2022/02/15 00:19:18;;;;;;;;;4.00;3.75;;;;;-147.17;100.00;50454.25;4991226;28;51674;-62
2022/02/15 00:21:45;;;;;;;;;4.00;3.00;;;;;-147.17;100.00;50464.09;4958749;28;51157;-61
2022/02/15 00:24:11;;;;;;;;;2.50;2.25;;;;;-147.17;100.00;50473.94;4972408;28;51168;-61
2022/02/15 00:26:37;;;;;;;;;3.00;3.00;;;;;-147.17;100.00;50483.78;4968101;28;51071;-61
2022/02/15 00:29:04;;;;;;;;;3.00;2.75;;;;;-147.17;100.00;50466.06;4970008;28;51296;-61
2022/02/15 00:31:30;;;;;;;;;2.00;2.00;;;;;-147.17;100.00;50448.34;4969927;28;51138;-61
2022/02/15 00:33:56;;;;;;;;;3.00;2.25;;;;;-147.17;100.00;50462.13;4968079;28;51309;-61
2022/02/15 00:36:22;;;;;;;;;3.00;2.00;;;;;-147.17;100.00;50493.63;4973116;28;51420;-61
2022/02/15 00:38:48;;;;;;;;;3.00;2.75;;;;;-147.17;100.00;50477.88;4972192;28;51020;-62
2022/02/15 00:41:14;;;;;;;;;3.50;3.50;;;;;-147.17;100.00;50489.69;4971333;28;51209;-62
2022/02/15 00:43:45;;;;;;;;;2.00;2.00;;;;;-147.17;100.00;50466.06;4974799;28;51244;-61
2022/02/15 00:46:11;;;;;;;;;6.00;4.00;;;;;-147.17;100.00;50436.53;4966302;28;51150;-62
2022/02/15 00:48:37;;;;;;;;;3.00;2.75;;;;;-147.17;100.00;50458.19;4973180;28;51071;-61
2022/02/15 00:51:03;;;;;;;;;3.00;2.00;;;;;-147.17;100.00;50414.88;4975475;28;50894;-60
2022/02/15 00:53:29;;;;;;;;;2.50;1.75;;;;;-147.17;100.00;50456.22;4974139;28;50889;-61
2022/02/15 00:55:55;;;;;;;;;3.00;3.00;;;;;-147.17;100.00;50483.78;4989530;28;51214;-61
2022/02/15 00:58:21;;;;;;;;;5.25;3.00;;;;;-147.17;100.00;50446.38;4964083;28;52010;-61
2022/02/15 01:00:49;;;;;;;;;2.25;2.25;;;;;-147.17;100.00;50424.72;4967391;28;51299;-62
2022/02/15 01:03:18;;;;;;;;;2.50;2.25;;;;;-147.17;100.00;50452.28;4970443;28;51111;-61
2022/02/15 01:05:44;;;;;;;;;3.25;3.25;;;;;-147.17;100.00;50481.81;4972381;28;51329;-61
2022/02/15 01:08:12;;;;;;;;;4.00;4.00;;;;;-147.17;100.00;50454.25;4972904;28;51212;-60
2022/02/15 01:10:39;;;;;;;;;3.00;2.75;;;;;-147.17;100.00;50432.59;4976541;28;50920;-61
2022/02/15 01:13:05;;;;;;;;;4.25;4.25;;;;;-147.17;100.00;50477.88;4975916;28;51091;-62
2022/02/15 01:15:31;;;;;;;;;4.00;3.00;;;;;-147.17;100.00;50450.31;4975519;28;51325;-61
2022/02/15 01:17:57;;;;;;;;;3.00;2.00;;;;;-147.17;100.00;50418.81;4976955;28;52054;-61
2022/02/15 01:20:23;;;;;;;;;4.00;3.00;;;;;-147.17;100.00;50462.13;4974127;28;51031;-61
2022/02/15 01:22:52;;;;;;;;;4.00;3.00;;;;;-147.17;100.00;50462.13;4976793;28;51023;-61
2022/02/15 01:25:18;;;;;;;;;2.75;2.75;;;;;-147.17;100.00;50456.22;4975235;28;51050;-61
2022/02/15 01:27:44;;;;;;;;;6.00;5.00;;;;;-147.17;100.00;50448.34;4977602;28;51837;-61
2022/02/15 01:30:10;;;;;;;;;3.75;3.75;;;;;-147.17;100.00;50434.56;4975541;28;51086;-62
2022/02/15 01:32:36;;;;;;;;;3.25;2.75;;;;;-147.17;100.00;50446.38;4970864;28;51089;-61
2022/02/15 01:35:02;;;;;;;;;5.50;2.50;;;;;-147.17;100.00;50473.94;4974172;28;51590;-62
2022/02/15 01:37:28;;;;;;;;;3.00;1.00;;;;;-147.17;100.00;50466.06;4974148;28;51904;-62
2022/02/15 01:39:53;;;;;;;;;5.50;3.75;;;;;-147.17;100.00;50454.25;4965869;28;51828;-61
2022/02/15 01:42:19;;;;;;;;;4.00;3.25;;;;;-147.17;100.00;50460.16;4986870;28;51226;-62
2022/02/15 01:44:46;;;;;;;;;2.25;1.50;;;;;-147.17;100.00;50462.13;4973499;28;51370;-61
2022/02/15 01:47:25;;;;;;;;;12.00;10.00;;;;;-147.17;100.00;50456.22;4961618;28;53827;-62
2022/02/15 01:49:52;;;;;;;;;1.75;1.75;;;;;-147.17;100.00;50444.41;4974366;28;51195;-63
2022/02/15 01:52:20;;;;;;;;;1.00;1.00;;;;;-147.17;100.00;50460.16;4975229;28;51033;-61
2022/02/15 01:54:52;;;;;;;;;1.50;1.00;;;;;-147.17;100.00;50430.63;4970670;28;51163;-61
2022/02/15 01:57:18;;;;;;;;;1.00;1.00;;;;;-147.17;100.00;50438.50;4973410;28;52607;-62
2022/02/15 01:59:44;;;;;;;;;3.00;2.50;;;;;-147.17;100.00;50430.63;4974480;28;51111;-61
2022/02/15 02:02:10;;;;;;;;;1.75;1.75;;;;;-147.17;100.00;50462.13;4975035;28;50990;-61
2022/02/15 02:07:20;;;;;;;;;1.75;1.75;;;;;-147.17;100.00;50466.06;4971612;28;51448;-61
2022/02/15 02:09:45;;;;;;;;;1.75;1.00;;;;;-147.17;100.00;50475.91;4975132;28;51043;-61
2022/02/15 02:12:11;;;;;;;;;1.00;1.00;;;;;-147.17;100.00;50442.44;4975817;28;51127;-61
2022/02/15 02:14:37;;;;;;;;;3.00;2.25;;;;;-147.17;100.00;50452.28;4974431;28;51301;-61
2022/02/15 02:17:03;;;;;;;;;1.00;1.00;;;;;-147.17;100.00;50438.50;4971099;28;52067;-62
2022/02/15 02:19:29;;;;;;;;;3.00;2.00;;;;;-147.17;100.00;50462.13;4975935;28;50982;-61
2022/02/15 02:21:55;;;;;;;;;1.00;1.00;;;;;-147.17;100.00;50454.25;4989707;28;51217;-61
2022/02/15 02:24:21;;;;;;;;;2.25;1.75;;;;;-147.17;100.00;50440.47;4990136;28;51443;-62
2022/02/15 02:26:48;;;;;;;;;1.00;1.00;;;;;-147.17;100.00;50458.19;4993684;28;51877;-61
2022/02/15 02:29:13;;;;;;;;;1.50;1.25;;;;;-147.17;100.00;50468.03;4995666;28;51152;-61
2022/02/15 02:31:39;;;;;;;;;3.00;2.00;;;;;-147.17;100.00;50426.69;4994480;28;50814;-61
2022/02/15 02:34:04;;;;;;;;;2.00;2.00;;;;;-147.17;100.00;50442.44;4976866;28;51420;-61
2022/02/15 02:36:30;;;;;;;;;1.75;1.50;;;;;-147.17;100.00;50452.28;4993896;28;52598;-61
2022/02/15 02:38:55;;;;;;;;;2.50;1.75;;;;;-147.17;100.00;50426.69;4993444;28;50985;-61
2022/02/15 02:41:20;;;;;;;;;1.25;0.75;;;;;-147.17;100.00;50438.50;4992272;28;51417;-61
2022/02/15 02:43:46;;;;;;;;;4.25;1.75;;;;;-147.17;100.00;50438.50;4975756;28;51337;-61
2022/02/15 02:46:11;;;;;;;;;1.00;1.00;;;;;-147.17;100.00;50460.16;4990467;28;51893;-62
2022/02/15 02:48:42;;;;;;;;;1.75;1.00;;;;;-147.17;100.00;50462.13;4984380;28;51102;-61
2022/02/15 02:51:07;;;;;;;;;1.25;1.00;;;;;-147.17;100.00;50434.56;4994653;28;51145;-61
2022/02/15 02:53:32;;;;;;;;;0.75;0.75;;;;;-147.17;100.00;50470.00;4990093;28;50938;-61
2022/02/15 02:55:58;;;;;;;;;2.75;2.00;;;;;-147.17;100.00;50471.97;4993552;28;51602;-60
2022/02/15 02:58:23;;;;;;;;;3.00;2.00;;;;;-147.17;100.00;50424.72;4993875;28;51066;-61
2022/02/15 03:00:48;;;;;;;;;2.00;1.00;;;;;-147.17;100.00;50418.81;4976463;28;50986;-60
2022/02/15 03:03:14;;;;;;;;;3.00;2.00;;;;;-147.17;100.00;50466.06;4994627;28;51135;-62
2022/02/15 03:05:40;;;;;;;;;0.00;0.00;;;;;-147.17;100.00;50452.28;4989581;28;52626;-62
2022/02/15 03:08:05;;;;;;;;;1.00;1.00;;;;;-147.17;100.00;50448.34;4994725;28;51032;-61
2022/02/15 03:10:31;;;;;;;;;1.75;1.00;;;;;-147.17;100.00;50436.53;4993790;28;51345;-60
2022/02/15 03:12:56;;;;;;;;;1.75;1.50;;;;;-147.17;100.00;50462.13;4994418;28;51004;-62
2022/02/15 03:15:21;;;;;;;;;1.00;1.00;;;;;-147.17;100.00;50464.09;4993296;28;50931;-61
2022/02/15 03:17:47;;;;;;;;;1.00;1.00;;;;;-147.17;100.00;50444.41;4994338;28;50999;-61
2022/02/15 03:20:12;;;;;;;;;2.00;1.00;;;;;-147.17;100.00;50442.44;4993883;28;51083;-62
2022/02/15 03:22:38;;;;;;;;;1.50;1.50;;;;;-147.17;100.00;50458.19;4993638;28;51310;-61
2022/02/15 03:25:04;;;;;;;;;1.00;1.00;;;;;-147.17;100.00;50473.94;4992650;28;51998;-60
2022/02/15 03:27:29;;;;;;;;;2.25;1.75;;;;;-147.17;100.00;50452.28;4982461;28;51073;-61
2022/02/15 03:29:54;;;;;;;;;3.75;2.00;;;;;-147.17;100.00;50454.25;4993805;28;51058;-61
2022/02/15 03:32:20;;;;;;;;;1.00;1.00;;;;;-147.17;100.00;50414.88;4994042;28;51090;-61
2022/02/15 03:34:45;;;;;;;;;1.00;1.00;;;;;-147.17;100.00;50434.56;4992533;28;52031;-61
2022/02/15 03:37:11;;;;;;;;;1.50;1.00;;;;;-147.17;100.00;50412.91;4993442;28;53344;-61
2022/02/15 03:39:36;;;;;;;;;1.50;1.50;;;;;-147.17;100.00;50434.56;4992603;28;51178;-63
2022/02/15 03:44:49;;;;;;;;;0.00;0.00;;;;;-147.17;100.00;50434.56;4992683;28;51415;-61
2022/02/15 03:47:14;;;;;;;;;3.00;2.00;;;;;-147.17;100.00;50438.50;4993112;28;51293;-61
2022/02/15 03:49:40;;;;;;;;;1.00;1.00;;;;;-147.17;100.00;50438.50;4993891;28;51445;-61
2022/02/15 03:52:06;;;;;;;;;2.00;1.00;;;;;-147.17;100.00;50448.34;4983398;28;51249;-61
2022/02/15 03:54:31;;;;;;;;;2.00;1.00;;;;;-147.17;100.00;50428.66;4990915;28;51110;-61
2022/02/15 03:56:56;;;;;;;;;2.00;1.00;;;;;-147.17;100.00;50458.19;4992528;28;51243;-61
2022/02/15 03:59:22;;;;;;;;;1.67;1.00;;;;;-147.17;100.00;50454.25;4993569;28;51097;-61
2022/02/15 04:01:47;;;;;;;;;1.00;1.00;;;;;-147.17;100.00;50446.38;4965470;28;51348;-61
2022/02/15 04:04:12;;;;;;;;;2.50;1.50;;;;;-147.17;100.00;50464.09;4973170;28;51921;-61
2022/02/15 04:06:38;;;;;;;;;2.25;1.25;;;;;-147.17;100.00;50464.09;4993603;28;51052;-61
2022/02/15 04:09:03;;;;;;;;;1.50;1.50;;;;;-147.17;100.00;50450.31;4992330;28;51297;-61
2022/02/15 04:11:29;;;;;;;;;2.75;1.50;;;;;-147.17;100.00;50454.25;4993393;28;51147;-61
2022/02/15 04:13:54;;;;;;;;;1.00;1.00;;;;;-147.17;100.00;50456.22;4988870;28;52113;-61
2022/02/15 04:16:20;;;;;;;;;1.75;1.00;;;;;-147.17;100.00;50444.41;4993349;28;51091;-61
2022/02/15 04:18:48;;;;;;;;;0.25;0.25;;;;;-147.17;100.00;50442.44;4992942;28;51075;-61
2022/02/15 04:21:15;;;;;;;;;1.00;1.00;;;;;-147.17;100.00;50442.44;4975545;28;51342;-60
2022/02/15 04:23:41;;;;;;;;;0.00;0.00;;;;;-147.17;100.00;50438.50;4989187;28;51850;-61
2022/02/15 04:26:06;;;;;;;;;2.00;1.00;;;;;-147.17;100.00;50446.38;4993325;28;50976;-61
2022/02/15 04:28:32;;;;;;;;;1.00;1.00;;;;;-147.17;100.00;50470.00;4994657;28;51293;-60
2022/02/15 04:30:57;;;;;;;;;1.25;0.00;;;;;-147.17;100.00;50450.31;4991449;28;51217;-60
2022/02/15 04:33:23;;;;;;;;;0.00;0.00;;;;;-147.17;100.00;50446.38;4991780;28;51991;-60
2022/02/15 04:35:49;;;;;;;;;1.25;1.00;;;;;-147.17;100.00;50434.56;4993074;28;51355;-61
2022/02/15 04:38:15;;;;;;;;;1.25;1.25;;;;;-147.17;100.00;50450.31;4992483;28;50998;-60
2022/02/15 04:40:41;;;;;;;;;1.00;1.00;;;;;-147.17;100.00;50442.44;4993226;28;50893;-60
2022/02/15 04:43:06;;;;;;;;;1.00;1.00;;;;;-147.17;100.00;50462.13;4992882;28;51804;-60
2022/02/15 04:45:31;;;;;;;;;1.00;1.00;;;;;-147.17;100.00;50430.63;4991779;28;51239;-60
2022/02/15 04:47:57;;;;;;;;;1.00;0.75;;;;;-147.17;100.00;50436.53;4992493;28;51113;-60
2022/02/15 04:50:22;;;;;;;;;2.50;0.25;;;;;-147.17;100.00;50458.19;4994105;28;50995;-61
2022/02/15 04:52:48;;;;;;;;;2.00;2.00;;;;;-147.17;100.00;50407.00;4992869;28;51094;-60
2022/02/15 04:55:13;;;;;;;;;1.25;1.00;;;;;-147.17;100.00;50434.56;4992529;28;51125;-61
2022/02/15 04:57:38;;;;;;;;;3.00;1.00;;;;;-147.17;100.00;50446.38;4992913;28;51073;-61
2022/02/15 05:00:05;;;;;;;;;3.00;3.00;;;;;-147.17;100.00;50473.94;4991612;28;51203;-61
2022/02/15 05:02:30;;;;;;;;;4.25;4.25;;;;;-147.17;100.00;50479.84;4982806;28;52904;-61
2022/02/15 05:04:58;;;;;;;;;11.75;11.00;;;;;-147.17;100.00;50454.25;4987749;28;51141;-61
2022/02/15 05:07:23;;;;;;;;;3.50;3.00;;;;;-147.17;100.00;50440.47;4975240;28;51140;-60
2022/02/15 05:09:49;;;;;;;;;2.25;1.00;;;;;-147.17;100.00;50460.16;4992645;28;51045;-59
2022/02/15 05:12:15;;;;;;;;;3.00;2.00;;;;;-147.17;100.00;50446.38;4990652;28;52013;-61
2022/02/15 05:14:41;;;;;;;;;3.75;3.75;;;;;-147.17;100.00;50434.56;4991556;28;51016;-61
2022/02/15 05:17:07;;;;;;;;;2.50;2.00;;;;;-147.17;100.00;50466.06;4992728;28;51152;-61
2022/02/15 05:19:33;;;;;;;;;7.25;6.75;;;;;-147.17;100.00;50434.56;4991948;28;50924;-61
2022/02/15 05:22:02;;;;;;;;;5.25;4.00;;;;;-147.17;100.00;50473.94;4991916;28;52103;-62
2022/02/15 05:24:28;;;;;;;;;3.00;3.00;;;;;-147.17;100.00;50430.63;4991934;28;51338;-60
2022/02/15 05:26:54;;;;;;;;;2.25;2.25;;;;;-147.17;100.00;50436.53;4992508;28;51770;-60
2022/02/15 05:29:19;;;;;;;;;4.25;4.25;;;;;-147.17;100.00;50432.59;4992268;28;51000;-60
2022/02/15 05:31:47;;;;;;;;;3.50;3.50;;;;;-147.17;100.00;50440.47;4957500;28;51515;-60
2022/02/15 05:34:13;;;;;;;;;3.00;2.75;;;;;-147.17;100.00;50452.28;4974232;28;51031;-60
2022/02/15 05:36:38;;;;;;;;;8.25;6.00;;;;;-147.17;100.00;50438.50;4991661;28;51276;-61
2022/02/15 05:39:05;;;;;;;;;6.00;5.25;;;;;-147.17;100.00;50408.97;4992066;28;50918;-60
2022/02/15 05:41:30;;;;;;;;;8.00;7.00;;;;;-147.17;100.00;50458.19;4991938;28;51880;-60
2022/02/15 05:43:56;;;;;;;;;3.75;3.25;;;;;-147.17;100.00;50426.69;4991887;28;50950;-60
2022/02/15 05:46:21;;;;;;;;;3.00;3.00;;;;;-147.17;100.00;50438.50;4991447;28;51556;-60
2022/02/15 05:48:46;;;;;;;;;7.00;5.50;;;;;-147.17;100.00;50444.41;4985825;28;51123;-61
2022/02/15 05:51:12;;;;;;;;;3.00;3.00;;;;;-147.17;100.00;50422.75;4990381;28;51071;-60
2022/02/15 05:53:37;;;;;;;;;7.00;6.50;;;;;-147.17;100.00;50428.66;4985905;28;51145;-61
2022/02/15 05:56:03;;;;;;;;;6.75;5.50;;;;;-147.17;100.00;50448.34;4995702;28;50970;-61
2022/02/15 05:58:30;;;;;;;;;5.00;3.25;;;;;-147.17;100.00;50438.50;4978207;28;51261;-60
2022/02/15 06:01:00;;;;;;;;;6.00;6.00;;;;;-147.17;100.00;50418.81;4994987;28;51110;-61
2022/02/15 06:06:09;;;;;;;;;6.00;5.50;;;;;-147.17;100.00;50432.59;4995680;28;51008;-61
2022/02/15 06:08:35;;;;;;;;;3.00;2.00;;;;;-147.17;100.00;50462.13;4995590;28;51385;-60
2022/02/15 06:11:03;;;;;;;;;1.75;1.75;;;;;-147.17;100.00;50456.22;4994378;28;51224;-60
2022/02/15 06:13:29;;;;;;;;;2.00;2.00;;;;;-147.17;100.00;50438.50;4995411;28;51055;-60
2022/02/15 06:15:55;;;;;;;;;1.50;1.50;;;;;-147.17;100.00;50438.50;4995136;28;51136;-60
2022/02/15 06:18:21;;;;;;;;;2.00;2.00;;;;;-147.17;100.00;50424.72;4995380;28;51147;-60
2022/02/15 06:20:46;;;;;;;;;1.00;1.00;;;;;-147.17;100.00;50422.75;4994651;28;51711;-60
2022/02/15 06:23:11;;;;;;;;;1.00;1.00;;;;;-147.17;100.00;50442.44;4995097;28;51004;-61
2022/02/15 06:25:37;;;;;;;;;2.00;2.00;;;;;-147.17;100.00;50410.94;4992070;28;51134;-61
2022/02/15 06:28:03;;;;;;;;;1.00;1.00;;;;;-147.17;100.00;50412.91;4997710;28;51175;-61
2022/02/15 06:30:28;;;;;;;;;1.50;1.50;;;;;-147.17;100.00;50434.56;5005862;28;53802;-60
2022/02/15 06:32:54;;;;;;;;;3.00;2.50;;;;;-147.17;100.00;50430.63;4995185;28;50938;-60
2022/02/15 06:35:19;;;;;;;;;1.50;1.50;;;;;-147.17;100.00;50420.78;4994757;28;51105;-62
2022/02/15 06:37:47;;;;;;;;;1.00;1.00;;;;;-147.17;100.00;50430.63;4989147;28;51245;-61
2022/02/15 06:40:13;;;;;;;;;1.50;1.00;;;;;-147.17;100.00;50422.75;4993554;28;51148;-61
2022/02/15 06:42:39;;;;;;;;;5.75;5.75;;;;;-147.17;100.00;50440.47;4994217;28;51145;-61
2022/02/15 06:45:05;;;;;;;;;1.00;1.00;;;;;-147.17;100.00;50428.66;4990213;28;51116;-61
2022/02/15 06:47:31;;;;;;;;;3.00;2.50;;;;;-147.17;100.00;50466.06;4978632;28;51278;-61
2022/02/15 06:49:57;;;;;;;;;1.00;1.00;;;;;-147.17;100.00;50450.31;4992244;28;52009;-61
2022/02/15 06:52:23;;;;;;;;;1.50;1.25;;;;;-147.17;100.00;50418.81;4994046;28;51064;-61
2022/02/15 06:54:48;;;;;;;;;2.50;2.50;;;;;-147.17;100.00;50424.72;4963207;28;50929;-61
2022/02/15 06:57:14;;;;;;;;;2.50;2.00;;;;;-147.17;100.00;50454.25;4965109;28;50873;-61
2022/02/15 06:59:39;;;;;;;;;0.25;0.25;;;;;-147.17;100.00;50456.22;4992097;28;51877;-60
2022/02/15 07:02:04;;;;;;;;;2.00;1.00;;;;;-147.17;100.00;50477.88;4993640;28;51225;-61
2022/02/15 07:04:30;;;;;;;;;2.00;2.00;;;;;-147.17;100.00;50458.19;4982958;28;51134;-60
2022/02/15 07:06:56;;;;;;;;;3.75;2.00;;;;;-147.17;100.00;50444.41;4965343;28;51245;-60
2022/02/15 07:09:22;;;;;;;;;2.00;1.00;;;;;-147.17;100.00;50436.53;4974592;28;53779;-61
2022/02/15 07:11:48;;;;;;;;;2.50;1.25;;;;;-147.17;100.00;50468.03;4994125;28;51467;-61
2022/02/15 07:14:13;;;;;;;;;2.00;2.00;;;;;-147.17;100.00;50462.13;4976205;28;51351;-61
2022/02/15 07:16:40;;;;;;;;;2.00;2.00;;;;;-147.17;100.00;50493.63;4994389;28;51199;-62
2022/02/15 07:19:06;;;;;;;;;1.25;1.25;;;;;-147.17;100.00;50458.19;4991354;28;52897;-61
2022/02/15 07:21:32;;;;;;;;;2.25;1.75;;;;;-147.17;100.00;50442.44;4993023;28;51227;-61
2022/02/15 07:23:58;;;;;;;;;2.00;1.25;;;;;-147.17;100.00;50454.25;4992654;28;51131;-60
2022/02/15 07:26:23;;;;;;;;;2.00;1.50;;;;;-147.17;100.00;50460.16;4994100;28;50934;-61
2022/02/15 07:28:49;;;;;;;;;3.00;2.75;;;;;-147.17;100.00;50436.53;4993861;28;52069;-60
2022/02/15 07:31:14;;;;;;;;;3.75;2.75;;;;;-147.17;100.00;50466.06;4993163;28;51142;-61
2022/02/15 07:33:40;;;;;;;;;3.00;2.00;;;;;-147.17;100.00;50454.25;4993596;28;51033;-61
2022/02/15 07:36:06;;;;;;;;;3.25;3.00;;;;;-147.17;100.00;50458.19;4994111;28;51016;-61
2022/02/15 07:38:32;;;;;;;;;2.75;2.75;;;;;-147.17;100.00;50454.25;4993343;28;52697;-61
2022/02/15 07:40:57;;;;;;;;;5.75;3.25;;;;;-147.17;100.00;50471.97;4993497;28;50987;-61
2022/02/15 07:43:25;;;;;;;;;3.00;3.00;;;;;-147.17;100.00;50456.22;4976212;28;50965;-61
2022/02/15 07:45:50;;;;;;;;;2.00;2.00;;;;;-147.17;100.00;50466.06;4993858;28;51321;-61
2022/02/15 07:48:16;;;;;;;;;2.00;2.00;;;;;-147.17;100.00;50471.97;4975614;28;52927;-62
2022/02/15 07:50:41;;;;;;;;;3.50;3.50;;;;;-147.17;100.00;50442.44;4993597;28;51022;-60
2022/02/15 07:53:07;;;;;;;;;4.00;3.00;;;;;-147.17;100.00;50485.75;4993505;28;51237;-61
2022/02/15 07:55:32;;;;;;;;;2.50;2.00;;;;;-147.17;100.00;50470.00;4993786;28;51110;-61
2022/02/15 07:57:58;;;;;;;;;3.75;2.75;;;;;-147.17;100.00;50450.31;4993206;28;51354;-61
2022/02/15 08:00:24;;;;;;;;;1.00;1.00;;;;;-147.17;100.00;50462.13;4993038;28;50864;-60
2022/02/15 08:02:51;;;;;;;;;4.25;3.00;;;;;-147.17;100.00;50450.31;4993529;28;50830;-60
2022/02/15 08:05:17;;;;;;;;;3.00;3.00;;;;;-147.17;100.00;50450.31;4993794;28;50961;-61
2022/02/15 08:07:47;;;;;;;;;3.00;2.00;;;;;-147.17;100.00;50471.97;4991748;28;53891;-61
2022/02/15 08:10:13;;;;;;;;;3.00;2.25;;;;;-147.17;100.00;50501.50;4992946;28;51025;-61
2022/02/15 08:12:41;;;;;;;;;1.25;0.50;;;;;-147.17;100.00;50464.09;4992668;28;50905;-61
2022/02/15 08:15:06;;;;;;;;;3.50;2.50;;;;;-147.17;100.00;50507.41;4992787;28;50964;-62
2022/02/15 08:17:32;;;;;;;;;3.00;2.50;;;;;-147.17;100.00;50505.44;4993047;28;51740;-61
2022/02/15 08:19:57;;;;;;;;;1.00;1.00;;;;;-147.17;100.00;50497.56;4992764;28;51053;-62
2022/02/15 08:22:24;;;;;;;;;1.75;1.25;;;;;-147.17;100.00;50458.19;4993255;28;51384;-61
2022/02/15 08:24:49;;;;;;;;;1.00;1.00;;;;;-147.17;100.00;50426.69;4989912;28;51116;-61
2022/02/15 08:27:14;;;;;;;;;1.75;1.50;;;;;-147.17;100.00;50442.44;4992685;28;51079;-62
2022/02/15 08:29:40;;;;;;;;;2.00;2.00;;;;;-147.17;100.00;50477.88;4992440;28;51142;-62
2022/02/15 08:32:06;;;;;;;;;2.67;2.00;;;;;-147.17;100.00;50523.16;4993165;28;51186;-61
2022/02/15 08:34:33;;;;;;;;;3.33;2.67;;;;;-147.17;100.00;50596.00;4992779;28;51088;-61
2022/02/15 08:36:58;;;;;;;;;3.00;3.00;;;;;-147.17;100.00;50718.06;4992716;28;51276;-61
2022/02/15 08:39:25;;;;;;;;;2.67;2.67;;;;;-147.17;98.04;50788.94;4992884;28;51060;-61
2022/02/15 08:41:50;;;;;;;;;3.33;3.00;;;;;-147.17;96.15;50840.13;4993057;28;50909;-60
2022/02/15 08:44:16;;;;;;;;;3.00;3.00;;;;;-147.17;93.79;50905.09;4990796;28;51104;-62
2022/02/15 08:46:41;;;;;;;;;5.00;4.00;;;;;-147.17;90.37;50993.69;4992628;28;51789;-61
2022/02/15 08:49:06;;;;;;;;;6.67;6.67;;;;;-147.17;89.37;51023.22;4992795;28;51223;-61
2022/02/15 08:51:35;;;;;;;;;6.67;5.00;;;;;-147.17;86.26;51115.75;4992836;28;50945;-61
2022/02/15 08:54:01;;;;;;;;;4.67;4.67;;;;;-147.17;83.22;51210.28;4993079;28;50975;-61
2022/02/15 08:56:27;;;;;;;;;2.00;2.00;;;;;-147.17;82.73;51212.25;4974701;28;53472;-62
2022/02/15 08:58:53;;;;;;;;;3.00;3.00;;;;;-147.17;80.32;51289.03;4992848;28;51055;-60
2022/02/15 09:01:18;;;;;;;;;5.00;4.00;;;;;-147.17;80.27;51312.66;4966012;28;51064;-61
2022/02/15 09:03:43;;;;;;;;;3.00;3.00;;;;;-147.17;78.74;51363.84;4988305;28;51218;-61
2022/02/15 09:06:10;;;;;;;;;3.33;2.00;;;;;-147.17;78.16;51399.28;4992401;28;52288;-62
2022/02/15 09:08:36;;;;;;;;;3.00;3.00;;;;;-147.17;74.32;51513.50;4991624;28;51131;-61
2022/02/15 09:11:02;;;;;;;;;4.33;4.00;;;;;-147.17;74.33;51464.28;4975092;28;51066;-61
2022/02/15 09:13:27;;;;;;;;;2.00;2.00;;;;;-147.17;73.78;51509.56;4992286;28;51124;-61
2022/02/15 09:15:53;;;;;;;;;2.33;1.67;;;;;-147.17;72.96;51480.03;4991303;28;51279;-62
2022/02/15 09:18:19;;;;;;;;;3.00;2.00;;;;;-147.17;72.34;51529.25;4992003;28;51146;-62
2022/02/15 09:20:44;;;;;;;;;3.00;2.67;;;;;-147.17;70.37;51501.69;4992437;28;51146;-61
2022/02/15 09:23:09;;;;;;;;;2.00;1.67;;;;;-147.17;70.19;51545.00;4992507;28;51283;-61
2022/02/15 09:25:35;;;;;;;;;5.00;2.67;;;;;-147.17;69.36;51604.09;4993979;28;51174;-60
2022/02/15 09:28:01;;;;;;;;;4.00;3.00;;;;;-147.17;69.05;51586.38;4978673;28;51047;-61
2022/02/15 09:30:27;;;;;;;;;5.00;3.00;;;;;-147.17;68.56;51674.97;4977879;28;51179;-62
2022/02/15 09:32:53;;;;;;;;;3.00;3.00;;;;;-147.17;65.65;51688.75;4995624;28;50916;-62
2022/02/15 09:35:18;;;;;;;;;3.00;2.33;;;;;-147.17;65.57;51678.91;4995478;28;51145;-62
2022/02/15 09:37:44;;;;;;;;;3.00;3.00;;;;;-147.17;65.35;51682.84;4995478;28;51024;-60
2022/02/15 09:40:10;;;;;;;;;3.00;3.00;;;;;-147.17;64.74;51676.94;4977977;28;51241;-62
2022/02/15 09:42:36;;;;;;;;;3.00;3.00;;;;;-147.17;64.65;51678.91;4978270;28;51353;-60
2022/02/15 09:45:04;;;;;;;;;3.33;2.33;;;;;-147.17;64.40;51710.44;4994816;28;51261;-61
2022/02/15 09:47:33;;;;;;;;;5.00;3.00;;;;;-147.17;65.00;51649.38;4995429;28;51027;-60
2022/02/15 09:50:01;;;;;;;;;3.67;3.33;;;;;-147.17;64.85;51700.56;4995527;28;51041;-61
2022/02/15 09:52:27;;;;;;;;;5.00;3.00;;;;;-147.17;64.94;51720.28;4995359;28;51008;-61
2022/02/15 09:54:55;;;;;;;;;15.33;15.00;;;;;-147.17;63.45;51686.78;4995190;28;51960;-61
2022/02/15 09:57:22;;;;;;;;;7.67;7.33;;;;;-147.17;62.46;51665.13;4995080;28;51136;-62
2022/02/15 09:59:50;;;;;;;;;22.33;22.33;;;;;-147.17;62.31;51686.78;4994750;28;51164;-61
2022/02/15 10:02:20;;;;;;;;;5.33;4.33;;;;;-147.17;61.67;51653.31;4995182;28;51380;-61
2022/02/15 10:04:50;;;;;;;;;2.00;2.00;;;;;-147.17;61.24;51608.03;4977457;28;50986;-61
2022/02/15 10:07:15;;;;;;;;;1.67;1.67;;;;;-147.17;61.27;51533.19;4994538;28;51195;-61
2022/02/15 10:09:43;;;;;;;;;3.00;3.00;;;;;-147.17;60.44;51560.75;4994791;28;51337;-61
2022/02/15 10:12:14;;;;;;;;;3.00;3.00;;;;;-147.17;60.45;51529.25;4995108;28;51346;-60
2022/02/15 10:14:42;;;;;;;;;1.00;1.00;;;;;-147.17;61.19;51377.63;4994492;28;51828;-61
2022/02/15 10:17:10;;;;;;;;;2.33;2.33;;;;;-147.17;61.96;51426.88;4994839;28;50923;-61
2022/02/15 10:19:36;;;;;;;;;2.67;2.00;;;;;-147.17;62.06;51513.50;4995089;28;51126;-62
2022/02/15 10:22:04;;;;;;;;;1.33;1.33;;;;;-147.17;60.68;51483.97;4994740;28;51075;-61
2022/02/15 10:24:32;;;;;;;;;2.67;1.67;;;;;-147.17;60.46;51359.91;4992517;28;51141;-61
2022/02/15 10:27:02;;;;;;;;;6.00;5.67;;;;;-147.17;61.48;51287.06;4980091;28;51029;-62
2022/02/15 10:29:29;;;;;;;;;4.67;4.67;;;;;-147.17;63.29;51243.75;4975897;28;51229;-61
2022/02/15 10:31:57;;;;;;;;;4.00;3.67;;;;;-147.17;64.05;51233.91;4994704;28;51291;-62
2022/02/15 10:34:23;;;;;;;;;4.33;3.33;;;;;-147.17;65.49;51155.13;4960011;28;53965;-62
2022/02/15 10:37:04;;;;;;;;;3.00;2.00;;;;;-147.17;65.87;51141.34;4984535;28;51125;-62
2022/02/15 10:39:38;;;;;;;;;2.00;2.00;;;;;-147.17;66.97;51129.53;4994556;28;51115;-62
2022/02/15 10:42:09;;;;;;;;;1.33;1.00;;;;;-147.17;68.01;51094.09;4995440;28;50926;-62
2022/02/15 10:44:46;;;;;;;;;3.00;2.00;;;;;-147.17;68.84;51040.94;4994656;28;51973;-62
2022/02/15 10:47:12;;;;;;;;;4.00;2.00;;;;;-147.17;69.88;51044.88;4994233;28;51073;-62
2022/02/15 10:49:37;;;;;;;;;4.67;3.67;;;;;-147.17;70.67;51060.63;4976668;28;51188;-62
2022/02/15 10:52:03;;;;;;;;;1.33;1.00;;;;;-147.17;70.55;51046.84;4994748;28;51102;-62
2022/02/15 10:54:28;;;;;;;;;3.00;2.00;;;;;-147.17;71.22;51015.34;4976536;28;53929;-61
2022/02/15 10:56:54;;;;;;;;;3.33;2.67;;;;;-147.17;73.26;50981.88;4994093;28;50808;-62
2022/02/15 10:59:22;;;;;;;;;2.67;2.00;;;;;-147.17;72.52;51135.44;4976376;28;50933;-62
2022/02/15 11:01:50;;;;;;;;;4.00;4.00;;;;;-147.17;71.23;51190.59;4994277;28;51290;-62
2022/02/15 11:04:17;;;;;;;;;5.33;5.00;;;;;-147.17;68.83;51324.47;4994011;28;52669;-62
2022/02/15 11:06:43;;;;;;;;;8.33;7.00;;;;;-147.17;67.41;51399.28;4993783;28;51082;-62
2022/02/15 11:09:17;;;;;;;;;3.00;2.33;;;;;-147.17;67.44;51513.50;4994381;28;50873;-62
2022/02/15 11:11:59;;;;;;;;;6.00;5.00;;;;;-147.17;65.98;51533.19;4993952;28;51173;-62
2022/02/15 11:14:25;;;;;;;;;6.00;5.00;;;;;-147.17;64.34;51604.09;4993542;28;51766;-62
2022/02/15 11:16:51;;;;;;;;;4.33;4.33;;;;;-147.17;63.00;51507.59;4993715;28;51132;-62